sensor_id;sensor_type;location;lat;lon;timestamp;pressure;altitude;pressure_sealevel;temperature;humidity
64687;BME280;51113;53.646;-113.674;2023-09-12T00:02:20;93393.59;;;23.73;35.33
64687;BME280;51113;53.646;-113.674;2023-09-12T00:04:49;93395.84;;;23.71;35.54
64687;BME280;51113;53.646;-113.674;2023-09-12T00:07:18;93391.56;;;23.66;36.31
64687;BME280;51113;53.646;-113.674;2023-09-12T00:09:47;93380.91;;;23.63;35.84
64687;BME280;51113;53.646;-113.674;2023-09-12T00:12:16;93377.47;;;23.62;36.28
64687;BME280;51113;53.646;-113.674;2023-09-12T00:14:45;93372.25;;;23.66;36.13
64687;BME280;51113;53.646;-113.674;2023-09-12T00:17:14;93368.69;;;23.58;36.60
64687;BME280;51113;53.646;-113.674;2023-09-12T00:19:43;93372.44;;;23.57;36.36
64687;BME280;51113;53.646;-113.674;2023-09-12T00:22:12;93370.03;;;23.52;36.81
64687;BME280;51113;53.646;-113.674;2023-09-12T00:24:41;93366.06;;;23.42;37.38
64687;BME280;51113;53.646;-113.674;2023-09-12T00:27:10;93368.22;;;23.37;37.31
64687;BME280;51113;53.646;-113.674;2023-09-12T00:29:39;93356.88;;;23.20;37.44
64687;BME280;51113;53.646;-113.674;2023-09-12T00:32:07;93357.88;;;23.32;37.12
64687;BME280;51113;53.646;-113.674;2023-09-12T00:34:36;93357.88;;;23.32;35.66
64687;BME280;51113;53.646;-113.674;2023-09-12T00:37:05;93351.09;;;23.15;36.83
64687;BME280;51113;53.646;-113.674;2023-09-12T00:39:34;93352.06;;;23.07;36.66
64687;BME280;51113;53.646;-113.674;2023-09-12T00:42:03;93350.69;;;22.97;36.83
64687;BME280;51113;53.646;-113.674;2023-09-12T00:44:33;93338.22;;;22.98;36.88
64687;BME280;51113;53.646;-113.674;2023-09-12T00:47:02;93338.06;;;22.91;36.98
64687;BME280;51113;53.646;-113.674;2023-09-12T00:49:32;93348.94;;;22.85;37.32
64687;BME280;51113;53.646;-113.674;2023-09-12T00:52:02;93343.38;;;22.75;38.14
64687;BME280;51113;53.646;-113.674;2023-09-12T00:54:31;93352.69;;;22.69;37.93
64687;BME280;51113;53.646;-113.674;2023-09-12T00:56:59;93343.63;;;22.70;37.51
64687;BME280;51113;53.646;-113.674;2023-09-12T00:59:29;93337.22;;;22.71;37.33
64687;BME280;51113;53.646;-113.674;2023-09-12T01:01:58;93333.03;;;22.70;37.90
64687;BME280;51113;53.646;-113.674;2023-09-12T01:04:28;93338.25;;;22.66;36.96
64687;BME280;51113;53.646;-113.674;2023-09-12T01:07:03;93335.25;;;22.68;37.02
64687;BME280;51113;53.646;-113.674;2023-09-12T01:09:33;93337.31;;;22.59;37.54
64687;BME280;51113;53.646;-113.674;2023-09-12T01:12:02;93334.06;;;22.49;38.22
64687;BME280;51113;53.646;-113.674;2023-09-12T01:14:31;93323.50;;;22.34;38.03
64687;BME280;51113;53.646;-113.674;2023-09-12T01:17:00;93333.56;;;22.28;38.69
64687;BME280;51113;53.646;-113.674;2023-09-12T01:19:31;93325.53;;;22.09;38.87
64687;BME280;51113;53.646;-113.674;2023-09-12T01:22:40;93324.41;;;22.10;38.70
64687;BME280;51113;53.646;-113.674;2023-09-12T01:28:12;93330.84;;;21.97;38.73
64687;BME280;51113;53.646;-113.674;2023-09-12T01:30:45;93316.88;;;21.68;40.16
64687;BME280;51113;53.646;-113.674;2023-09-12T01:33:17;93317.91;;;21.64;39.50
64687;BME280;51113;53.646;-113.674;2023-09-12T01:35:46;93315.16;;;21.60;39.31
64687;BME280;51113;53.646;-113.674;2023-09-12T01:38:15;93311.66;;;21.56;39.45
64687;BME280;51113;53.646;-113.674;2023-09-12T01:40:51;93307.28;;;21.48;39.84
64687;BME280;51113;53.646;-113.674;2023-09-12T01:43:23;93311.28;;;21.42;39.62
64687;BME280;51113;53.646;-113.674;2023-09-12T01:45:54;93307.81;;;21.25;40.15
64687;BME280;51113;53.646;-113.674;2023-09-12T01:48:28;93317.47;;;21.34;39.57
64687;BME280;51113;53.646;-113.674;2023-09-12T01:51:02;93315.97;;;21.08;40.66
64687;BME280;51113;53.646;-113.674;2023-09-12T01:53:33;93307.84;;;21.01;40.87
64687;BME280;51113;53.646;-113.674;2023-09-12T01:56:04;93309.16;;;20.95;40.72
64687;BME280;51113;53.646;-113.674;2023-09-12T01:58:33;93308.72;;;20.93;40.57
64687;BME280;51113;53.646;-113.674;2023-09-12T02:01:02;93290.53;;;20.51;42.51
64687;BME280;51113;53.646;-113.674;2023-09-12T02:03:31;93303.81;;;20.55;42.15
64687;BME280;51113;53.646;-113.674;2023-09-12T02:06:00;93306.13;;;20.56;41.68
64687;BME280;51113;53.646;-113.674;2023-09-12T02:08:29;93298.44;;;20.51;41.42
64687;BME280;51113;53.646;-113.674;2023-09-12T02:10:57;93306.47;;;20.55;41.47
64687;BME280;51113;53.646;-113.674;2023-09-12T02:13:26;93299.41;;;20.59;41.34
64687;BME280;51113;53.646;-113.674;2023-09-12T02:16:01;93305.25;;;20.52;41.66
64687;BME280;51113;53.646;-113.674;2023-09-12T02:18:33;93304.16;;;20.41;42.41
64687;BME280;51113;53.646;-113.674;2023-09-12T02:21:01;93298.22;;;20.44;41.60
64687;BME280;51113;53.646;-113.674;2023-09-12T02:23:30;93308.28;;;20.30;42.45
64687;BME280;51113;53.646;-113.674;2023-09-12T02:25:59;93302.03;;;20.22;42.92
64687;BME280;51113;53.646;-113.674;2023-09-12T02:28:27;93303.03;;;20.30;41.93
64687;BME280;51113;53.646;-113.674;2023-09-12T02:30:56;93305.00;;;20.21;42.29
64687;BME280;51113;53.646;-113.674;2023-09-12T02:33:25;93303.34;;;20.16;42.56
64687;BME280;51113;53.646;-113.674;2023-09-12T02:35:54;93306.75;;;20.29;42.16
64687;BME280;51113;53.646;-113.674;2023-09-12T02:38:22;93305.22;;;20.16;43.16
64687;BME280;51113;53.646;-113.674;2023-09-12T02:40:51;93295.09;;;20.18;42.50
64687;BME280;51113;53.646;-113.674;2023-09-12T02:43:19;93289.84;;;20.30;41.96
64687;BME280;51113;53.646;-113.674;2023-09-12T02:45:48;93296.75;;;20.22;42.23
64687;BME280;51113;53.646;-113.674;2023-09-12T02:48:16;93285.22;;;20.15;42.71
64687;BME280;51113;53.646;-113.674;2023-09-12T02:50:45;93285.53;;;20.13;42.90
64687;BME280;51113;53.646;-113.674;2023-09-12T02:53:14;93278.28;;;20.10;42.41
64687;BME280;51113;53.646;-113.674;2023-09-12T02:55:42;93289.38;;;20.04;42.69
64687;BME280;51113;53.646;-113.674;2023-09-12T02:58:11;93276.63;;;19.93;43.01
64687;BME280;51113;53.646;-113.674;2023-09-12T03:00:40;93290.63;;;19.73;46.08
64687;BME280;51113;53.646;-113.674;2023-09-12T03:03:09;93288.88;;;19.77;43.50
64687;BME280;51113;53.646;-113.674;2023-09-12T03:05:38;93295.00;;;19.69;43.95
64687;BME280;51113;53.646;-113.674;2023-09-12T03:08:07;93290.72;;;19.64;44.29
64687;BME280;51113;53.646;-113.674;2023-09-12T03:10:36;93285.13;;;19.66;44.20
64687;BME280;51113;53.646;-113.674;2023-09-12T03:13:05;93282.81;;;19.64;44.33
64687;BME280;51113;53.646;-113.674;2023-09-12T03:15:36;93285.13;;;19.66;44.22
64687;BME280;51113;53.646;-113.674;2023-09-12T03:18:09;93283.91;;;19.63;44.41
64687;BME280;51113;53.646;-113.674;2023-09-12T03:20:38;93285.66;;;19.59;44.79
64687;BME280;51113;53.646;-113.674;2023-09-12T03:23:07;93280.00;;;19.49;45.84
64687;BME280;51113;53.646;-113.674;2023-09-12T03:25:39;93271.19;;;19.45;45.61
64687;BME280;51113;53.646;-113.674;2023-09-12T03:28:08;93287.44;;;19.47;45.98
64687;BME280;51113;53.646;-113.674;2023-09-12T03:30:37;93283.47;;;19.41;46.19
64687;BME280;51113;53.646;-113.674;2023-09-12T03:33:06;93274.56;;;19.33;46.69
64687;BME280;51113;53.646;-113.674;2023-09-12T03:35:35;93280.03;;;19.28;47.17
64687;BME280;51113;53.646;-113.674;2023-09-12T03:38:04;93275.97;;;19.30;46.93
64687;BME280;51113;53.646;-113.674;2023-09-12T03:40:33;93275.91;;;19.18;47.67
64687;BME280;51113;53.646;-113.674;2023-09-12T03:43:01;93268.22;;;19.13;47.97
64687;BME280;51113;53.646;-113.674;2023-09-12T03:45:30;93274.00;;;19.07;48.01
64687;BME280;51113;53.646;-113.674;2023-09-12T03:47:58;93267.72;;;18.99;47.97
64687;BME280;51113;53.646;-113.674;2023-09-12T03:50:27;93272.34;;;19.02;48.04
64687;BME280;51113;53.646;-113.674;2023-09-12T03:52:56;93269.19;;;18.88;48.57
64687;BME280;51113;53.646;-113.674;2023-09-12T03:55:24;93269.97;;;18.88;48.58
64687;BME280;51113;53.646;-113.674;2023-09-12T03:57:53;93266.56;;;18.88;48.48
64687;BME280;51113;53.646;-113.674;2023-09-12T04:00:22;93266.56;;;18.88;48.30
64687;BME280;51113;53.646;-113.674;2023-09-12T04:02:50;93253.16;;;18.81;48.61
64687;BME280;51113;53.646;-113.674;2023-09-12T04:05:19;93266.44;;;18.84;48.26
64687;BME280;51113;53.646;-113.674;2023-09-12T04:07:48;93252.88;;;18.74;48.75
64687;BME280;51113;53.646;-113.674;2023-09-12T04:10:19;93252.63;;;18.66;48.85
64687;BME280;51113;53.646;-113.674;2023-09-12T04:12:47;93258.34;;;18.68;48.79
64687;BME280;51113;53.646;-113.674;2023-09-12T04:15:16;93250.00;;;18.66;48.97
64687;BME280;51113;53.646;-113.674;2023-09-12T04:17:45;93244.72;;;18.66;49.10
64687;BME280;51113;53.646;-113.674;2023-09-12T04:20:13;93246.16;;;18.55;49.22
64687;BME280;51113;53.646;-113.674;2023-09-12T04:22:42;93245.28;;;18.51;49.71
64687;BME280;51113;53.646;-113.674;2023-09-12T04:25:11;93243.59;;;18.47;50.17
64687;BME280;51113;53.646;-113.674;2023-09-12T04:27:41;93244.19;;;18.52;49.30
64687;BME280;51113;53.646;-113.674;2023-09-12T04:30:11;93251.50;;;18.47;49.64
64687;BME280;51113;53.646;-113.674;2023-09-12T04:32:39;93239.94;;;18.39;49.89
64687;BME280;51113;53.646;-113.674;2023-09-12T04:35:08;93247.81;;;18.39;49.92
64687;BME280;51113;53.646;-113.674;2023-09-12T04:37:37;93243.50;;;18.34;50.25
64687;BME280;51113;53.646;-113.674;2023-09-12T04:40:07;93256.22;;;18.32;49.66
64687;BME280;51113;53.646;-113.674;2023-09-12T04:42:36;93250.03;;;18.28;49.65
64687;BME280;51113;53.646;-113.674;2023-09-12T04:45:05;93246.56;;;18.16;50.65
64687;BME280;51113;53.646;-113.674;2023-09-12T04:47:34;93248.53;;;18.19;49.91
64687;BME280;51113;53.646;-113.674;2023-09-12T04:50:03;93245.00;;;18.15;50.02
64687;BME280;51113;53.646;-113.674;2023-09-12T04:52:31;93241.66;;;18.05;50.66
64687;BME280;51113;53.646;-113.674;2023-09-12T04:55:01;93247.59;;;17.94;50.82
64687;BME280;51113;53.646;-113.674;2023-09-12T04:57:30;93242.63;;;17.92;50.55
64687;BME280;51113;53.646;-113.674;2023-09-12T04:59:59;93238.66;;;17.86;50.78
64687;BME280;51113;53.646;-113.674;2023-09-12T05:02:27;93241.66;;;17.59;53.46
64687;BME280;51113;53.646;-113.674;2023-09-12T05:04:56;93242.88;;;17.61;51.80
64687;BME280;51113;53.646;-113.674;2023-09-12T05:07:24;93247.81;;;17.63;51.11
64687;BME280;51113;53.646;-113.674;2023-09-12T05:09:53;93249.84;;;17.57;52.08
64687;BME280;51113;53.646;-113.674;2023-09-12T05:12:22;93246.00;;;17.46;52.99
64687;BME280;51113;53.646;-113.674;2023-09-12T05:14:50;93245.38;;;17.49;51.87
64687;BME280;51113;53.646;-113.674;2023-09-12T05:17:19;93242.78;;;17.40;52.11
64687;BME280;51113;53.646;-113.674;2023-09-12T05:19:48;93244.53;;;17.02;56.00
64687;BME280;51113;53.646;-113.674;2023-09-12T05:22:16;93246.69;;;16.91;55.72
64687;BME280;51113;53.646;-113.674;2023-09-12T05:24:45;93243.72;;;16.58;56.42
64687;BME280;51113;53.646;-113.674;2023-09-12T05:27:14;93234.91;;;16.37;57.63
64687;BME280;51113;53.646;-113.674;2023-09-12T05:29:42;93244.31;;;16.46;58.50
64687;BME280;51113;53.646;-113.674;2023-09-12T05:32:11;93226.44;;;16.48;57.40
64687;BME280;51113;53.646;-113.674;2023-09-12T05:34:39;93236.13;;;16.39;59.40
64687;BME280;51113;53.646;-113.674;2023-09-12T05:37:08;93235.97;;;16.27;59.63
64687;BME280;51113;53.646;-113.674;2023-09-12T05:39:37;93229.28;;;16.12;60.05
64687;BME280;51113;53.646;-113.674;2023-09-12T05:42:05;93229.88;;;16.01;60.08
64687;BME280;51113;53.646;-113.674;2023-09-12T05:44:34;93230.16;;;15.91;60.01
64687;BME280;51113;53.646;-113.674;2023-09-12T05:47:02;93232.38;;;15.66;60.77
64687;BME280;51113;53.646;-113.674;2023-09-12T05:49:31;93219.03;;;15.23;62.07
64687;BME280;51113;53.646;-113.674;2023-09-12T05:52:02;93230.69;;;15.17;62.48
64687;BME280;51113;53.646;-113.674;2023-09-12T05:54:31;93236.94;;;15.07;62.55
64687;BME280;51113;53.646;-113.674;2023-09-12T05:56:59;93237.19;;;14.97;63.30
64687;BME280;51113;53.646;-113.674;2023-09-12T05:59:29;93226.44;;;14.99;64.13
64687;BME280;51113;53.646;-113.674;2023-09-12T06:01:57;93224.72;;;14.94;63.41
64687;BME280;51113;53.646;-113.674;2023-09-12T06:04:26;93222.38;;;14.93;63.42
64687;BME280;51113;53.646;-113.674;2023-09-12T06:06:55;93232.50;;;14.85;64.34
64687;BME280;51113;53.646;-113.674;2023-09-12T06:09:23;93227.69;;;15.01;62.18
64687;BME280;51113;53.646;-113.674;2023-09-12T06:11:53;93219.00;;;15.45;58.57
64687;BME280;51113;53.646;-113.674;2023-09-12T06:14:22;93232.25;;;15.71;58.20
64687;BME280;51113;53.646;-113.674;2023-09-12T06:16:50;93223.16;;;15.69;58.07
64687;BME280;51113;53.646;-113.674;2023-09-12T06:19:19;93224.38;;;15.71;60.34
64687;BME280;51113;53.646;-113.674;2023-09-12T06:21:48;93226.13;;;15.54;60.40
64687;BME280;51113;53.646;-113.674;2023-09-12T06:24:19;93223.72;;;15.35;60.60
64687;BME280;51113;53.646;-113.674;2023-09-12T06:26:50;93228.56;;;14.97;62.99
64687;BME280;51113;53.646;-113.674;2023-09-12T06:29:18;93230.69;;;14.72;63.66
64687;BME280;51113;53.646;-113.674;2023-09-12T06:31:47;93237.44;;;14.51;65.03
64687;BME280;51113;53.646;-113.674;2023-09-12T06:34:15;93237.81;;;14.58;64.06
64687;BME280;51113;53.646;-113.674;2023-09-12T06:36:44;93240.53;;;14.53;64.08
64687;BME280;51113;53.646;-113.674;2023-09-12T06:39:13;93269.09;;;14.36;66.05
64687;BME280;51113;53.646;-113.674;2023-09-12T06:41:42;93315.44;;;14.16;65.91
64687;BME280;51113;53.646;-113.674;2023-09-12T06:44:10;93332.69;;;14.45;65.80
64687;BME280;51113;53.646;-113.674;2023-09-12T06:46:39;93296.22;;;14.76;64.15
64687;BME280;51113;53.646;-113.674;2023-09-12T06:49:08;93344.47;;;14.70;64.62
64687;BME280;51113;53.646;-113.674;2023-09-12T06:51:36;93310.38;;;14.75;63.27
64687;BME280;51113;53.646;-113.674;2023-09-12T06:54:05;93282.66;;;14.88;62.89
64687;BME280;51113;53.646;-113.674;2023-09-12T06:56:34;93297.38;;;14.83;63.79
64687;BME280;51113;53.646;-113.674;2023-09-12T06:59:05;93283.16;;;14.76;64.46
64687;BME280;51113;53.646;-113.674;2023-09-12T07:01:34;93288.78;;;14.69;64.62
64687;BME280;51113;53.646;-113.674;2023-09-12T07:04:03;93296.59;;;14.47;65.38
64687;BME280;51113;53.646;-113.674;2023-09-12T07:06:31;93285.44;;;14.55;64.69
64687;BME280;51113;53.646;-113.674;2023-09-12T07:09:01;93274.78;;;14.65;64.55
64687;BME280;51113;53.646;-113.674;2023-09-12T07:11:31;93273.53;;;14.49;65.72
64687;BME280;51113;53.646;-113.674;2023-09-12T07:13:59;93272.88;;;14.30;66.34
64687;BME280;51113;53.646;-113.674;2023-09-12T07:16:28;93271.91;;;14.26;66.75
64687;BME280;51113;53.646;-113.674;2023-09-12T07:18:57;93270.34;;;14.25;66.52
64687;BME280;51113;53.646;-113.674;2023-09-12T07:21:25;93258.44;;;14.46;66.45
64687;BME280;51113;53.646;-113.674;2023-09-12T07:23:54;93257.66;;;14.32;66.39
64687;BME280;51113;53.646;-113.674;2023-09-12T07:26:22;93261.44;;;14.53;66.66
64687;BME280;51113;53.646;-113.674;2023-09-12T07:28:53;93254.06;;;14.41;66.94
64687;BME280;51113;53.646;-113.674;2023-09-12T07:31:22;93245.88;;;14.48;66.16
64687;BME280;51113;53.646;-113.674;2023-09-12T07:33:51;93254.88;;;14.42;68.01
64687;BME280;51113;53.646;-113.674;2023-09-12T07:36:19;93250.63;;;14.18;68.77
64687;BME280;51113;53.646;-113.674;2023-09-12T07:38:48;93236.88;;;14.27;67.06
64687;BME280;51113;53.646;-113.674;2023-09-12T07:41:17;93242.00;;;14.45;67.16
64687;BME280;51113;53.646;-113.674;2023-09-12T07:43:47;93245.19;;;14.29;68.15
64687;BME280;51113;53.646;-113.674;2023-09-12T07:46:15;93238.91;;;14.30;67.76
64687;BME280;51113;53.646;-113.674;2023-09-12T07:48:44;93240.38;;;14.22;69.25
64687;BME280;51113;53.646;-113.674;2023-09-12T07:51:16;93248.50;;;14.20;68.90
64687;BME280;51113;53.646;-113.674;2023-09-12T07:53:48;93248.78;;;14.19;69.19
64687;BME280;51113;53.646;-113.674;2023-09-12T07:56:16;93231.28;;;14.19;68.54
64687;BME280;51113;53.646;-113.674;2023-09-12T07:58:45;93237.38;;;14.15;68.97
64687;BME280;51113;53.646;-113.674;2023-09-12T08:01:13;93236.59;;;14.14;68.91
64687;BME280;51113;53.646;-113.674;2023-09-12T08:03:43;93237.97;;;14.12;69.81
64687;BME280;51113;53.646;-113.674;2023-09-12T08:06:12;93239.69;;;14.30;68.66
64687;BME280;51113;53.646;-113.674;2023-09-12T08:08:41;93224.38;;;14.37;67.04
64687;BME280;51113;53.646;-113.674;2023-09-12T08:11:12;93223.41;;;14.33;68.74
64687;BME280;51113;53.646;-113.674;2023-09-12T08:13:40;93236.22;;;14.21;69.61
64687;BME280;51113;53.646;-113.674;2023-09-12T08:16:09;93222.25;;;14.39;67.25
64687;BME280;51113;53.646;-113.674;2023-09-12T08:18:38;93227.47;;;14.39;67.98
64687;BME280;51113;53.646;-113.674;2023-09-12T08:21:06;93221.19;;;14.40;67.49
64687;BME280;51113;53.646;-113.674;2023-09-12T08:23:35;93220.22;;;14.50;66.72
64687;BME280;51113;53.646;-113.674;2023-09-12T08:26:04;93221.53;;;14.61;66.59
64687;BME280;51113;53.646;-113.674;2023-09-12T08:28:33;93219.41;;;14.63;65.85
64687;BME280;51113;53.646;-113.674;2023-09-12T08:31:01;93218.34;;;14.64;65.71
64687;BME280;51113;53.646;-113.674;2023-09-12T08:33:30;93217.91;;;14.48;68.00
64687;BME280;51113;53.646;-113.674;2023-09-12T08:35:58;93217.22;;;14.29;68.29
64687;BME280;51113;53.646;-113.674;2023-09-12T08:38:27;93225.66;;;14.26;69.08
64687;BME280;51113;53.646;-113.674;2023-09-12T08:40:55;93232.34;;;14.18;68.98
64687;BME280;51113;53.646;-113.674;2023-09-12T08:43:25;93241.81;;;14.14;69.27
64687;BME280;51113;53.646;-113.674;2023-09-12T08:45:54;93245.69;;;14.17;68.89
64687;BME280;51113;53.646;-113.674;2023-09-12T08:48:23;93249.16;;;14.26;68.71
64687;BME280;51113;53.646;-113.674;2023-09-12T08:50:53;93248.69;;;14.24;69.41
64687;BME280;51113;53.646;-113.674;2023-09-12T08:53:22;93253.44;;;14.22;69.24
64687;BME280;51113;53.646;-113.674;2023-09-12T08:55:51;93252.16;;;14.19;69.59
64687;BME280;51113;53.646;-113.674;2023-09-12T08:58:21;93259.53;;;14.17;69.42
64687;BME280;51113;53.646;-113.674;2023-09-12T09:00:51;93259.34;;;14.14;69.45
64687;BME280;51113;53.646;-113.674;2023-09-12T09:03:21;93254.31;;;14.04;70.71
64687;BME280;51113;53.646;-113.674;2023-09-12T09:05:52;93245.03;;;13.98;71.91
64687;BME280;51113;53.646;-113.674;2023-09-12T09:08:23;93253.75;;;13.93;73.01
64687;BME280;51113;53.646;-113.674;2023-09-12T09:10:57;93244.25;;;13.83;73.97
64687;BME280;51113;53.646;-113.674;2023-09-12T09:13:25;93241.56;;;13.75;73.82
64687;BME280;51113;53.646;-113.674;2023-09-12T09:16:15;93238.16;;;13.74;73.91
64687;BME280;51113;53.646;-113.674;2023-09-12T09:18:57;93252.66;;;13.67;74.60
64687;BME280;51113;53.646;-113.674;2023-09-12T09:21:28;93250.03;;;13.53;74.83
64687;BME280;51113;53.646;-113.674;2023-09-12T09:24:01;93256.69;;;13.45;75.29
64687;BME280;51113;53.646;-113.674;2023-09-12T09:26:50;93262.53;;;13.23;76.05
64687;BME280;51113;53.646;-113.674;2023-09-12T09:29:20;93257.75;;;13.12;76.32
64687;BME280;51113;53.646;-113.674;2023-09-12T09:31:51;93244.41;;;12.81;77.26
64687;BME280;51113;53.646;-113.674;2023-09-12T09:34:21;93239.63;;;12.69;76.59
64687;BME280;51113;53.646;-113.674;2023-09-12T09:36:55;93233.63;;;12.87;77.13
64687;BME280;51113;53.646;-113.674;2023-09-12T09:39:27;93243.41;;;12.77;77.60
64687;BME280;51113;53.646;-113.674;2023-09-12T09:41:59;93248.91;;;12.75;77.81
64687;BME280;51113;53.646;-113.674;2023-09-12T09:44:27;93251.53;;;12.75;77.46
64687;BME280;51113;53.646;-113.674;2023-09-12T09:46:59;93257.28;;;12.72;76.86
64687;BME280;51113;53.646;-113.674;2023-09-12T09:49:33;93251.66;;;12.65;77.17
64687;BME280;51113;53.646;-113.674;2023-09-12T09:52:05;93247.59;;;12.59;77.68
64687;BME280;51113;53.646;-113.674;2023-09-12T09:54:34;93247.09;;;12.76;77.87
64687;BME280;51113;53.646;-113.674;2023-09-12T09:57:04;93253.91;;;12.90;77.27
64687;BME280;51113;53.646;-113.674;2023-09-12T09:59:32;93256.91;;;12.98;77.90
64687;BME280;51113;53.646;-113.674;2023-09-12T10:02:01;93256.34;;;13.01;77.59
64687;BME280;51113;53.646;-113.674;2023-09-12T10:04:34;93267.25;;;13.03;78.38
64687;BME280;51113;53.646;-113.674;2023-09-12T10:07:05;93253.75;;;13.01;78.16
64687;BME280;51113;53.646;-113.674;2023-09-12T10:09:37;93263.81;;;13.07;77.50
64687;BME280;51113;53.646;-113.674;2023-09-12T10:12:06;93271.56;;;13.12;77.92
64687;BME280;51113;53.646;-113.674;2023-09-12T10:14:34;93267.34;;;13.16;78.83
64687;BME280;51113;53.646;-113.674;2023-09-12T10:17:04;93264.44;;;13.18;78.39
64687;BME280;51113;53.646;-113.674;2023-09-12T10:19:51;93266.88;;;13.28;78.64
64687;BME280;51113;53.646;-113.674;2023-09-12T10:22:31;93269.34;;;13.38;78.76
64687;BME280;51113;53.646;-113.674;2023-09-12T10:25:00;93259.38;;;13.40;78.97
64687;BME280;51113;53.646;-113.674;2023-09-12T10:27:30;93257.25;;;13.42;79.76
64687;BME280;51113;53.646;-113.674;2023-09-12T10:29:59;93270.31;;;13.42;79.98
64687;BME280;51113;53.646;-113.674;2023-09-12T10:32:30;93273.00;;;13.37;80.13
64687;BME280;51113;53.646;-113.674;2023-09-12T10:35:02;93287.09;;;13.36;80.45
64687;BME280;51113;53.646;-113.674;2023-09-12T10:37:31;93282.47;;;13.33;81.23
64687;BME280;51113;53.646;-113.674;2023-09-12T10:40:05;93269.50;;;13.28;82.09
64687;BME280;51113;53.646;-113.674;2023-09-12T10:42:36;93271.81;;;13.30;82.74
64687;BME280;51113;53.646;-113.674;2023-09-12T10:45:06;93262.44;;;13.29;82.79
64687;BME280;51113;53.646;-113.674;2023-09-12T10:47:36;93256.53;;;13.23;82.52
64687;BME280;51113;53.646;-113.674;2023-09-12T10:50:06;93278.41;;;13.41;82.86
64687;BME280;51113;53.646;-113.674;2023-09-12T10:52:36;93270.88;;;13.39;83.31
64687;BME280;51113;53.646;-113.674;2023-09-12T10:55:08;93265.94;;;13.38;83.32
64687;BME280;51113;53.646;-113.674;2023-09-12T10:58:04;93273.00;;;13.37;83.98
64687;BME280;51113;53.646;-113.674;2023-09-12T11:00:33;93278.72;;;13.39;83.28
64687;BME280;51113;53.646;-113.674;2023-09-12T11:05:56;93280.63;;;13.34;84.14
64687;BME280;51113;53.646;-113.674;2023-09-12T11:08:24;93274.88;;;13.18;84.75
64687;BME280;51113;53.646;-113.674;2023-09-12T11:11:18;93270.44;;;13.18;84.93
64687;BME280;51113;53.646;-113.674;2023-09-12T11:14:05;93269.28;;;13.24;85.48
64687;BME280;51113;53.646;-113.674;2023-09-12T11:16:34;93275.69;;;13.32;84.96
64687;BME280;51113;53.646;-113.674;2023-09-12T11:19:22;93269.28;;;13.24;85.28
64687;BME280;51113;53.646;-113.674;2023-09-12T11:21:52;93273.16;;;13.27;85.38
64687;BME280;51113;53.646;-113.674;2023-09-12T11:24:21;93268.53;;;13.24;85.21
64687;BME280;51113;53.646;-113.674;2023-09-12T11:27:00;93276.09;;;13.39;85.26
64687;BME280;51113;53.646;-113.674;2023-09-12T11:29:34;93285.88;;;13.47;84.65
64687;BME280;51113;53.646;-113.674;2023-09-12T11:32:05;93281.63;;;13.51;84.69
64687;BME280;51113;53.646;-113.674;2023-09-12T11:34:43;93268.50;;;13.56;84.32
64687;BME280;51113;53.646;-113.674;2023-09-12T11:37:26;93268.13;;;13.63;84.32
64687;BME280;51113;53.646;-113.674;2023-09-12T11:39:55;93262.41;;;13.61;84.23
64687;BME280;51113;53.646;-113.674;2023-09-12T11:42:26;93276.34;;;13.70;83.92
64687;BME280;51113;53.646;-113.674;2023-09-12T11:44:56;93263.78;;;13.86;83.16
64687;BME280;51113;53.646;-113.674;2023-09-12T11:47:25;93271.34;;;13.87;82.94
64687;BME280;51113;53.646;-113.674;2023-09-12T11:49:53;93273.47;;;13.85;83.13
64687;BME280;51113;53.646;-113.674;2023-09-12T11:52:22;93281.97;;;13.91;82.83
64687;BME280;51113;53.646;-113.674;2023-09-12T11:54:51;93285.06;;;13.93;82.50
64687;BME280;51113;53.646;-113.674;2023-09-12T11:57:22;93296.47;;;13.97;82.94
64687;BME280;51113;53.646;-113.674;2023-09-12T11:59:50;93294.44;;;13.94;82.62
64687;BME280;51113;53.646;-113.674;2023-09-12T12:02:20;93304.03;;;13.99;82.83
64687;BME280;51113;53.646;-113.674;2023-09-12T12:04:49;93310.03;;;13.99;83.21
64687;BME280;51113;53.646;-113.674;2023-09-12T12:07:19;93305.56;;;14.00;82.99
64687;BME280;51113;53.646;-113.674;2023-09-12T12:09:48;93311.00;;;14.03;82.93
64687;BME280;51113;53.646;-113.674;2023-09-12T12:12:16;93327.13;;;14.05;82.57
64687;BME280;51113;53.646;-113.674;2023-09-12T12:14:45;93315.72;;;14.01;83.03
64687;BME280;51113;53.646;-113.674;2023-09-12T12:17:15;93309.81;;;13.96;83.14
64687;BME280;51113;53.646;-113.674;2023-09-12T12:19:45;93312.72;;;13.94;83.13
64687;BME280;51113;53.646;-113.674;2023-09-12T12:22:14;93309.53;;;13.97;83.12
64687;BME280;51113;53.646;-113.674;2023-09-12T12:24:45;93310.88;;;13.95;83.86
64687;BME280;51113;53.646;-113.674;2023-09-12T12:27:15;93307.97;;;13.96;83.74
64687;BME280;51113;53.646;-113.674;2023-09-12T12:29:44;93307.13;;;14.01;83.80
64687;BME280;51113;53.646;-113.674;2023-09-12T12:32:15;93302.09;;;14.04;83.70
64687;BME280;51113;53.646;-113.674;2023-09-12T12:34:48;93308.47;;;14.12;83.55
64687;BME280;51113;53.646;-113.674;2023-09-12T12:37:37;93307.69;;;14.11;83.50
64687;BME280;51113;53.646;-113.674;2023-09-12T12:40:06;93306.06;;;14.15;83.52
64687;BME280;51113;53.646;-113.674;2023-09-12T12:42:40;93313.31;;;14.18;83.53
64687;BME280;51113;53.646;-113.674;2023-09-12T12:45:22;93306.53;;;14.17;83.53
64687;BME280;51113;53.646;-113.674;2023-09-12T12:48:00;93309.72;;;14.14;83.83
64687;BME280;51113;53.646;-113.674;2023-09-12T12:50:29;93306.16;;;14.10;83.78
64687;BME280;51113;53.646;-113.674;2023-09-12T12:52:58;93311.47;;;14.05;84.78